Legend Of The Seas — C6SL5 — position and weather

sailwx.info

Track history (hours):
 
Tides and Currents Weather Stations Pressure Air Temp Water Temp Dewpoint Dewpoint Depression Visibility Wind Speed Wind Dir Waves Ship Positions

Legend Of The Seas

Operator: Royal Caribbean Cruises Ltd

Last reported at 2019-May-20 17:01 UTC. Time now 2019-May-20 17:18 UTC.
Position N 37°06' W 008°33'.

Type: Passenger vessel. MMSI: 311378000.

Date/timePositionNaut miles runAvg speedWind from/ knotsBaromVisibWave heightAir tempDewpointWater temp
2019-May-20 17:01N 37°06' W 008°33'1 1.1
2019-May-20 16:25N 37°06' W 008°32'0 0.0
2019-May-20 15:55N 37°06' W 008°32'0 0.0
2019-May-20 15:28N 37°06' W 008°32'0 0.0
2019-May-20 14:55N 37°06' W 008°32'0 0.0
2019-May-20 14:25N 37°06' W 008°32'0 0.0
2019-May-20 13:55N 37°06' W 008°32'0 0.1
2019-May-20 13:25N 37°06' W 008°32'0 0.0
2019-May-20 12:55N 37°06' W 008°32'0 0.1
2019-May-20 11:58N 37°06' W 008°32'0 0.0
2019-May-20 11:07N 37°06' W 008°32'0 0.1
2019-May-20 10:55N 37°06' W 008°32'0 0.0
2019-May-20 10:25N 37°06' W 008°32'0 0.0
2019-May-20 09:55N 37°06' W 008°32'0 0.0
2019-May-20 08:55N 37°06' W 008°32'0 0.0
2019-May-20 08:25N 37°06' W 008°32'0 0.1
2019-May-20 07:55N 37°06' W 008°32'0 0.1
2019-May-20 07:25N 37°06' W 008°32'0 0.1
2019-May-20 06:55N 37°06' W 008°32'1 1.6
2019-May-20 06:30N 37°05' W 008°32'510.3
2019-May-20 06:01N 37°02' W 008°27'917.2
2019-May-20 05:30N 36°58' W 008°18'918.0
2019-May-20 05:00N 36°54' W 008°08'918.0
2019-May-20 04:30N 36°49' W 007°58'917.9
2019-May-20 04:00N 36°45' W 007°49'29016.9
2019-May-19 10:54N 36°36' W 001°48'25718.9
2019-May-18 21:16N 39°18' E 002°25'518.6
2019-May-18 21:00N 39°22' E 002°28'918.3
2019-May-18 20:30N 39°29' E 002°36'4 7.9
2019-May-18 20:00N 39°33' E 002°38'0 0.4
2019-May-18 19:30N 39°33' E 002°38'0 0.0
2019-May-18 19:00N 39°33' E 002°38'0 0.0
2019-May-18 18:30N 39°33' E 002°38'0 0.0
2019-May-18 18:00N 39°33' E 002°38'0 0.0
2019-May-18 17:30N 39°33' E 002°38'0 0.0
2019-May-18 17:00N 39°33' E 002°38'0 0.0
2019-May-18 16:30N 39°33' E 002°38'0 0.0
2019-May-18 16:00N 39°33' E 002°38'0 0.0
2019-May-18 15:30N 39°33' E 002°38'0 0.0
2019-May-18 15:00N 39°33' E 002°38'0 0.0
2019-May-18 14:30N 39°33' E 002°38'0 0.0
2019-May-18 14:00N 39°33' E 002°38'0 0.0
2019-May-18 13:30N 39°33' E 002°38'0 0.0
2019-May-18 13:00N 39°33' E 002°38'0 0.0
2019-May-18 12:30N 39°33' E 002°38'0 0.0
2019-May-18 12:00N 39°33' E 002°38'0 0.0
2019-May-18 11:30N 39°33' E 002°38'0 0.0
2019-May-18 11:00N 39°33' E 002°38'0 0.0
2019-May-18 10:30N 39°33' E 002°38'0 0.0
2019-May-18 10:00N 39°33' E 002°38'0 0.0
2019-May-18 09:30N 39°33' E 002°38'0 0.0
2019-May-18 09:00N 39°33' E 002°38'0 0.0
2019-May-18 08:30N 39°33' E 002°38'0 0.0
2019-May-18 08:00N 39°33' E 002°38'0 0.0
2019-May-18 07:30N 39°33' E 002°38'0 0.0
2019-May-18 07:00N 39°33' E 002°38'0 0.0
2019-May-18 06:30N 39°33' E 002°38'0 0.0
2019-May-18 06:00N 39°33' E 002°38'0 0.0
2019-May-18 05:30N 39°33' E 002°38'0 0.0
2019-May-18 05:00N 39°33' E 002°38'0 0.0
2019-May-18 04:30N 39°33' E 002°38'0 0.0
2019-May-18 04:00N 39°33' E 002°38'1 1.3
2019-May-18 03:30N 39°33' E 002°38'3 5.8
2019-May-18 03:00N 39°30' E 002°38'714.5
2019-May-18 02:30N 39°25' E 002°32'815.1
2019-May-18 02:00N 39°27' E 002°23'3414.3
2019-May-17 23:40N 40°00' E 002°20'1615.5
2019-May-17 22:38N 40°15' E 002°27'815.3
2019-May-17 22:06N 40°23' E 002°32'515.4
2019-May-17 21:46N 40°28' E 002°34'915.6
2019-May-17 21:11N 40°36' E 002°39'231 8.4
2019-May-16 17:42N 43°03' E 006°38'416.4
2019-May-16 17:26N 43°07' E 006°42'715.8
2019-May-16 17:00N 43°12' E 006°46'815.8
2019-May-16 16:30N 43°20' E 006°46'3 0.2
2019-May-16 04:31N 43°23' E 006°47'110.5
2019-May-16 04:26N 43°22' E 006°48'511.7
2019-May-16 04:00N 43°18' E 006°52'612.0
2019-May-16 03:30N 43°14' E 006°58'612.3
2019-May-16 03:00N 43°10' E 007°04'611.7
2019-May-16 02:30N 43°06' E 007°10'611.6
2019-May-16 02:00N 43°02' E 007°15'611.7
2019-May-16 01:30N 42°58' E 007°21'510.3
2019-May-16 01:00N 42°52' E 007°21'611.0
2019-May-16 00:30N 42°48' E 007°25'611.2
2019-May-16 00:00N 42°44' E 007°31'511.0
2019-May-15 23:30N 42°40' E 007°36'911.1
2019-May-15 22:44N 42°33' E 007°43'410.9
2019-May-15 22:20N 42°30' E 007°47'30 1.4
2019-May-15 01:21N 42°31' E 008°27'613.9
2019-May-15 00:54N 42°36' E 008°31'1714.9
2019-May-14 23:44N 42°51' E 008°44'2815.2
2019-May-14 21:54N 43°13' E 009°08'614.2
2019-May-14 21:30N 43°17' E 009°13'714.2
2019-May-14 21:00N 43°22' E 009°20'714.5
2019-May-14 20:30N 43°28' E 009°26'714.4
2019-May-14 20:00N 43°33' E 009°32'714.5
2019-May-14 19:30N 43°39' E 009°39'714.6
2019-May-14 19:00N 43°44' E 009°45'714.5
2019-May-14 18:30N 43°50' E 009°51'714.7
2019-May-14 18:00N 43°56' E 009°58'612.5
2019-May-14 17:31N 44°01' E 010°03'1 1.8
2019-May-14 16:59N 44°02' E 010°02'0 0.0
2019-May-14 16:29N 44°02' E 010°02'0 0.0
2019-May-14 15:59N 44°02' E 010°02'0 0.0
2019-May-14 15:29N 44°02' E 010°02'0 0.0
2019-May-14 14:53N 44°02' E 010°02'0 0.0
2019-May-14 14:29N 44°02' E 010°02'0 0.0
2019-May-14 13:59N 44°02' E 010°02'0 0.0
2019-May-14 13:29N 44°02' E 010°02'0 0.0
2019-May-14 12:59N 44°02' E 010°02'0 0.0
2019-May-14 12:29N 44°02' E 010°02'0 0.0
2019-May-14 11:59N 44°02' E 010°02'0 0.0
2019-May-14 11:29N 44°02' E 010°02'0 0.0
2019-May-14 10:59N 44°02' E 010°02'0 0.0
2019-May-14 10:29N 44°02' E 010°02'0 0.0
2019-May-14 09:59N 44°02' E 010°02'0 0.0
2019-May-14 09:29N 44°02' E 010°02'0 0.0
2019-May-14 08:59N 44°02' E 010°02'0 0.0
2019-May-14 08:29N 44°02' E 010°02'0 0.0
2019-May-14 07:59N 44°02' E 010°02'0 0.0
2019-May-14 07:29N 44°02' E 010°02'0 0.0
2019-May-14 06:59N 44°02' E 010°02'0 0.0
2019-May-14 06:29N 44°02' E 010°02'0 0.0
2019-May-14 05:59N 44°02' E 010°02'0 0.0
2019-May-14 05:29N 44°02' E 010°02'1 1.7
2019-May-14 05:01N 44°01' E 010°03'5 9.5
2019-May-14 04:30N 43°57' E 010°02'714.3
2019-May-14 04:01N 43°50' E 009°57'714.5
2019-May-14 03:31N 43°44' E 009°51'714.6
2019-May-14 03:00N 43°38' E 009°47'714.2
2019-May-14 02:31N 43°31' E 009°43'714.6
2019-May-14 02:01N 43°24' E 009°42'714.7
2019-May-14 01:30N 43°17' E 009°41'815.3
2019-May-14 01:01N 43°09' E 009°39'714.8
2019-May-14 00:31N 43°02' E 009°38'815.1
2019-May-13 23:58N 42°54' E 009°41'816.0
2019-May-13 23:27N 42°49' E 009°50'2216.5
2019-May-13 22:06N 42°36' E 010°14'818.9
2019-May-13 21:42N 42°31' E 010°23'818.9
2019-May-13 21:18N 42°26' E 010°30'618.9
2019-May-13 20:58N 42°22' E 010°36'45 2.1
2019-May-12 23:27N 41°38' E 010°22'817.9
2019-May-12 23:00N 41°35' E 010°12'34915.9
2019-May-12 01:06N 40°19' E 002°42'319.4
2019-May-12 00:58N 40°16' E 002°40'1019.5
2019-May-12 00:27N 40°08' E 002°34'4017.6
2019-May-11 22:10N 39°29' E 002°21'319.9
2019-May-11 22:00N 39°27' E 002°24'917.2
2019-May-11 21:30N 39°26' E 002°35'714.5
2019-May-11 21:00N 39°33' E 002°39'1 1.8
2019-May-11 20:30N 39°33' E 002°38'0 0.0
2019-May-11 19:59N 39°33' E 002°38'0 0.0
2019-May-11 19:29N 39°33' E 002°38'0 0.0
2019-May-11 18:59N 39°33' E 002°38'0 0.0
2019-May-11 18:29N 39°33' E 002°38'0 0.0
2019-May-11 17:59N 39°33' E 002°38'0 0.0
2019-May-11 17:29N 39°33' E 002°38'0 0.0
2019-May-11 16:59N 39°33' E 002°38'0 0.0
2019-May-11 16:29N 39°33' E 002°38'0 0.0
2019-May-11 15:59N 39°33' E 002°38'0 0.0
2019-May-11 15:29N 39°33' E 002°38'0 0.0
2019-May-11 14:59N 39°33' E 002°38'0 0.0
2019-May-11 14:29N 39°33' E 002°38'0 0.0
2019-May-11 13:59N 39°33' E 002°38'0 0.0
2019-May-11 13:29N 39°33' E 002°38'0 0.0
2019-May-11 12:59N 39°33' E 002°38'0 0.0
2019-May-11 12:29N 39°33' E 002°38'0 0.0
2019-May-11 11:59N 39°33' E 002°38'0 0.0
2019-May-11 11:29N 39°33' E 002°38'0 0.0
2019-May-11 10:59N 39°33' E 002°38'0 0.0
2019-May-11 10:29N 39°33' E 002°38'0 0.0
2019-May-11 09:59N 39°33' E 002°38'0 0.0
2019-May-11 09:29N 39°33' E 002°38'0 0.0
2019-May-11 08:59N 39°33' E 002°38'0 0.0
2019-May-11 08:29N 39°33' E 002°38'0 0.0
2019-May-11 07:59N 39°33' E 002°38'0 0.0
2019-May-11 07:29N 39°33' E 002°38'0 0.0
2019-May-11 06:59N 39°33' E 002°38'0 0.0
2019-May-11 06:29N 39°33' E 002°38'0 0.0
2019-May-11 05:59N 39°33' E 002°38'0 0.0
2019-May-11 05:29N 39°33' E 002°38'0 0.0
2019-May-11 04:59N 39°33' E 002°38'0 0.0
2019-May-11 04:29N 39°33' E 002°38'0 0.0
2019-May-11 03:59N 39°33' E 002°38'1 1.9
2019-May-11 03:30N 39°33' E 002°39'611.1
2019-May-11 03:00N 39°28' E 002°36'815.2
2019-May-11 02:30N 39°22' E 002°30'815.3
2019-May-11 02:00N 39°16' E 002°23'815.5
2019-May-11 01:30N 39°10' E 002°17'815.3
2019-May-11 01:00N 39°04' E 002°11'1014.6
2019-May-11 00:21N 38°57' E 002°03'1416.9
2019-May-10 23:31N 38°46' E 001°52'020.3
2019-May-10 23:30N 38°46' E 001°52'2219.6
2019-May-10 22:22N 38°30' E 001°31'  
Track history (hours):
 
Tides and Currents Weather Stations Pressure Air Temp Water Temp Dewpoint Dewpoint Depression Visibility Wind Speed Wind Dir Waves Ship Positions

Legend Of The Seas

Operator: Royal Caribbean Cruises Ltd

Last reported at 2019-May-20 17:01 UTC. Time now 2019-May-20 17:18 UTC.
Position N 37°06' W 008°33'.

Type: Passenger vessel. MMSI: 311378000.

Date/timePositionNaut miles runAvg speedWind from/ knotsBaromVisibWave heightAir tempDewpointWater temp
2019-May-20 17:01N 37°06' W 008°33'1 1.1
2019-May-20 16:25N 37°06' W 008°32'0 0.0
2019-May-20 15:55N 37°06' W 008°32'0 0.0
2019-May-20 15:28N 37°06' W 008°32'0 0.0
2019-May-20 14:55N 37°06' W 008°32'0 0.0
2019-May-20 14:25N 37°06' W 008°32'0 0.0
2019-May-20 13:55N 37°06' W 008°32'0 0.1
2019-May-20 13:25N 37°06' W 008°32'0 0.0
2019-May-20 12:55N 37°06' W 008°32'0 0.1
2019-May-20 11:58N 37°06' W 008°32'0 0.0
2019-May-20 11:07N 37°06' W 008°32'0 0.1
2019-May-20 10:55N 37°06' W 008°32'0 0.0
2019-May-20 10:25N 37°06' W 008°32'0 0.0
2019-May-20 09:55N 37°06' W 008°32'0 0.0
2019-May-20 08:55N 37°06' W 008°32'0 0.0
2019-May-20 08:25N 37°06' W 008°32'0 0.1
2019-May-20 07:55N 37°06' W 008°32'0 0.1
2019-May-20 07:25N 37°06' W 008°32'0 0.1
2019-May-20 06:55N 37°06' W 008°32'1 1.6
2019-May-20 06:30N 37°05' W 008°32'510.3
2019-May-20 06:01N 37°02' W 008°27'917.2
2019-May-20 05:30N 36°58' W 008°18'918.0
2019-May-20 05:00N 36°54' W 008°08'918.0
2019-May-20 04:30N 36°49' W 007°58'917.9
2019-May-20 04:00N 36°45' W 007°49'29016.9
2019-May-19 10:54N 36°36' W 001°48'25718.9
2019-May-18 21:16N 39°18' E 002°25'518.6
2019-May-18 21:00N 39°22' E 002°28'918.3
2019-May-18 20:30N 39°29' E 002°36'4 7.9
2019-May-18 20:00N 39°33' E 002°38'0 0.4
2019-May-18 19:30N 39°33' E 002°38'0 0.0
2019-May-18 19:00N 39°33' E 002°38'0 0.0
2019-May-18 18:30N 39°33' E 002°38'0 0.0
2019-May-18 18:00N 39°33' E 002°38'0 0.0
2019-May-18 17:30N 39°33' E 002°38'0 0.0
2019-May-18 17:00N 39°33' E 002°38'0 0.0
2019-May-18 16:30N 39°33' E 002°38'0 0.0
2019-May-18 16:00N 39°33' E 002°38'0 0.0
2019-May-18 15:30N 39°33' E 002°38'0 0.0
2019-May-18 15:00N 39°33' E 002°38'0 0.0
2019-May-18 14:30N 39°33' E 002°38'0 0.0
2019-May-18 14:00N 39°33' E 002°38'0 0.0
2019-May-18 13:30N 39°33' E 002°38'0 0.0
2019-May-18 13:00N 39°33' E 002°38'0 0.0
2019-May-18 12:30N 39°33' E 002°38'0 0.0
2019-May-18 12:00N 39°33' E 002°38'0 0.0
2019-May-18 11:30N 39°33' E 002°38'0 0.0
2019-May-18 11:00N 39°33' E 002°38'0 0.0
2019-May-18 10:30N 39°33' E 002°38'0 0.0
2019-May-18 10:00N 39°33' E 002°38'0 0.0
2019-May-18 09:30N 39°33' E 002°38'0 0.0
2019-May-18 09:00N 39°33' E 002°38'0 0.0
2019-May-18 08:30N 39°33' E 002°38'0 0.0
2019-May-18 08:00N 39°33' E 002°38'0 0.0
2019-May-18 07:30N 39°33' E 002°38'0 0.0
2019-May-18 07:00N 39°33' E 002°38'0 0.0
2019-May-18 06:30N 39°33' E 002°38'0 0.0
2019-May-18 06:00N 39°33' E 002°38'0 0.0
2019-May-18 05:30N 39°33' E 002°38'0 0.0
2019-May-18 05:00N 39°33' E 002°38'0 0.0
2019-May-18 04:30N 39°33' E 002°38'0 0.0
2019-May-18 04:00N 39°33' E 002°38'1 1.3
2019-May-18 03:30N 39°33' E 002°38'3 5.8
2019-May-18 03:00N 39°30' E 002°38'714.5
2019-May-18 02:30N 39°25' E 002°32'815.1
2019-May-18 02:00N 39°27' E 002°23'3414.3
2019-May-17 23:40N 40°00' E 002°20'1615.5
2019-May-17 22:38N 40°15' E 002°27'815.3
2019-May-17 22:06N 40°23' E 002°32'515.4
2019-May-17 21:46N 40°28' E 002°34'915.6
2019-May-17 21:11N 40°36' E 002°39'231 8.4
2019-May-16 17:42N 43°03' E 006°38'416.4
2019-May-16 17:26N 43°07' E 006°42'715.8
2019-May-16 17:00N 43°12' E 006°46'815.8
2019-May-16 16:30N 43°20' E 006°46'3 0.2
2019-May-16 04:31N 43°23' E 006°47'110.5
2019-May-16 04:26N 43°22' E 006°48'511.7
2019-May-16 04:00N 43°18' E 006°52'612.0
2019-May-16 03:30N 43°14' E 006°58'612.3
2019-May-16 03:00N 43°10' E 007°04'611.7
2019-May-16 02:30N 43°06' E 007°10'611.6
2019-May-16 02:00N 43°02' E 007°15'611.7
2019-May-16 01:30N 42°58' E 007°21'510.3
2019-May-16 01:00N 42°52' E 007°21'611.0
2019-May-16 00:30N 42°48' E 007°25'611.2
2019-May-16 00:00N 42°44' E 007°31'511.0
2019-May-15 23:30N 42°40' E 007°36'911.1
2019-May-15 22:44N 42°33' E 007°43'410.9
2019-May-15 22:20N 42°30' E 007°47'30 1.4
2019-May-15 01:21N 42°31' E 008°27'613.9
2019-May-15 00:54N 42°36' E 008°31'1714.9
2019-May-14 23:44N 42°51' E 008°44'2815.2
2019-May-14 21:54N 43°13' E 009°08'614.2
2019-May-14 21:30N 43°17' E 009°13'714.2
2019-May-14 21:00N 43°22' E 009°20'714.5
2019-May-14 20:30N 43°28' E 009°26'714.4
2019-May-14 20:00N 43°33' E 009°32'714.5
2019-May-14 19:30N 43°39' E 009°39'714.6
2019-May-14 19:00N 43°44' E 009°45'714.5
2019-May-14 18:30N 43°50' E 009°51'714.7
2019-May-14 18:00N 43°56' E 009°58'612.5
2019-May-14 17:31N 44°01' E 010°03'1 1.8
2019-May-14 16:59N 44°02' E 010°02'0 0.0
2019-May-14 16:29N 44°02' E 010°02'0 0.0
2019-May-14 15:59N 44°02' E 010°02'0 0.0
2019-May-14 15:29N 44°02' E 010°02'0 0.0
2019-May-14 14:53N 44°02' E 010°02'0 0.0
2019-May-14 14:29N 44°02' E 010°02'0 0.0
2019-May-14 13:59N 44°02' E 010°02'0 0.0
2019-May-14 13:29N 44°02' E 010°02'0 0.0
2019-May-14 12:59N 44°02' E 010°02'0 0.0
2019-May-14 12:29N 44°02' E 010°02'0 0.0
2019-May-14 11:59N 44°02' E 010°02'0 0.0
2019-May-14 11:29N 44°02' E 010°02'0 0.0
2019-May-14 10:59N 44°02' E 010°02'0 0.0
2019-May-14 10:29N 44°02' E 010°02'0 0.0
2019-May-14 09:59N 44°02' E 010°02'0 0.0
2019-May-14 09:29N 44°02' E 010°02'0 0.0
2019-May-14 08:59N 44°02' E 010°02'0 0.0
2019-May-14 08:29N 44°02' E 010°02'0 0.0
2019-May-14 07:59N 44°02' E 010°02'0 0.0
2019-May-14 07:29N 44°02' E 010°02'0 0.0
2019-May-14 06:59N 44°02' E 010°02'0 0.0
2019-May-14 06:29N 44°02' E 010°02'0 0.0
2019-May-14 05:59N 44°02' E 010°02'0 0.0
2019-May-14 05:29N 44°02' E 010°02'1 1.7
2019-May-14 05:01N 44°01' E 010°03'5 9.5
2019-May-14 04:30N 43°57' E 010°02'714.3
2019-May-14 04:01N 43°50' E 009°57'714.5
2019-May-14 03:31N 43°44' E 009°51'714.6
2019-May-14 03:00N 43°38' E 009°47'714.2
2019-May-14 02:31N 43°31' E 009°43'714.6
2019-May-14 02:01N 43°24' E 009°42'714.7
2019-May-14 01:30N 43°17' E 009°41'815.3
2019-May-14 01:01N 43°09' E 009°39'714.8
2019-May-14 00:31N 43°02' E 009°38'815.1
2019-May-13 23:58N 42°54' E 009°41'816.0
2019-May-13 23:27N 42°49' E 009°50'2216.5
2019-May-13 22:06N 42°36' E 010°14'818.9
2019-May-13 21:42N 42°31' E 010°23'818.9
2019-May-13 21:18N 42°26' E 010°30'618.9
2019-May-13 20:58N 42°22' E 010°36'45 2.1
2019-May-12 23:27N 41°38' E 010°22'817.9
2019-May-12 23:00N 41°35' E 010°12'34915.9
2019-May-12 01:06N 40°19' E 002°42'319.4
2019-May-12 00:58N 40°16' E 002°40'1019.5
2019-May-12 00:27N 40°08' E 002°34'4017.6
2019-May-11 22:10N 39°29' E 002°21'319.9
2019-May-11 22:00N 39°27' E 002°24'917.2
2019-May-11 21:30N 39°26' E 002°35'714.5
2019-May-11 21:00N 39°33' E 002°39'1 1.8
2019-May-11 20:30N 39°33' E 002°38'0 0.0
2019-May-11 19:59N 39°33' E 002°38'0 0.0
2019-May-11 19:29N 39°33' E 002°38'0 0.0
2019-May-11 18:59N 39°33' E 002°38'0 0.0
2019-May-11 18:29N 39°33' E 002°38'0 0.0
2019-May-11 17:59N 39°33' E 002°38'0 0.0
2019-May-11 17:29N 39°33' E 002°38'0 0.0
2019-May-11 16:59N 39°33' E 002°38'0 0.0
2019-May-11 16:29N 39°33' E 002°38'0 0.0
2019-May-11 15:59N 39°33' E 002°38'0 0.0
2019-May-11 15:29N 39°33' E 002°38'0 0.0
2019-May-11 14:59N 39°33' E 002°38'0 0.0
2019-May-11 14:29N 39°33' E 002°38'0 0.0
2019-May-11 13:59N 39°33' E 002°38'0 0.0
2019-May-11 13:29N 39°33' E 002°38'0 0.0
2019-May-11 12:59N 39°33' E 002°38'0 0.0
2019-May-11 12:29N 39°33' E 002°38'0 0.0
2019-May-11 11:59N 39°33' E 002°38'0 0.0
2019-May-11 11:29N 39°33' E 002°38'0 0.0
2019-May-11 10:59N 39°33' E 002°38'0 0.0
2019-May-11 10:29N 39°33' E 002°38'0 0.0
2019-May-11 09:59N 39°33' E 002°38'0 0.0
2019-May-11 09:29N 39°33' E 002°38'0 0.0
2019-May-11 08:59N 39°33' E 002°38'0 0.0
2019-May-11 08:29N 39°33' E 002°38'0 0.0
2019-May-11 07:59N 39°33' E 002°38'0 0.0
2019-May-11 07:29N 39°33' E 002°38'0 0.0
2019-May-11 06:59N 39°33' E 002°38'0 0.0
2019-May-11 06:29N 39°33' E 002°38'0 0.0
2019-May-11 05:59N 39°33' E 002°38'0 0.0
2019-May-11 05:29N 39°33' E 002°38'0 0.0
2019-May-11 04:59N 39°33' E 002°38'0 0.0
2019-May-11 04:29N 39°33' E 002°38'0 0.0
2019-May-11 03:59N 39°33' E 002°38'1 1.9
2019-May-11 03:30N 39°33' E 002°39'611.1
2019-May-11 03:00N 39°28' E 002°36'815.2
2019-May-11 02:30N 39°22' E 002°30'815.3
2019-May-11 02:00N 39°16' E 002°23'815.5
2019-May-11 01:30N 39°10' E 002°17'815.3
2019-May-11 01:00N 39°04' E 002°11'1014.6
2019-May-11 00:21N 38°57' E 002°03'1416.9
2019-May-10 23:31N 38°46' E 001°52'020.3
2019-May-10 23:30N 38°46' E 001°52'2219.6
2019-May-10 22:22N 38°30' E 001°31'  

Dump ship's entire track history